Time;durP1;ratioP1;P1;durP2;ratioP2;P2;SDS_P1;SDS_P2;PMS_P1;PMS_P2;Temp;Humidity;BMP_temperature;BMP_pressure;BME280_temperature;BME280_humidity;BME280_pressure;Samples;Min_cycle;Max_cycle;Signal;HPM_P1;HPM_P2
2022/11/16 00:01:44;;;;;;;0.50;0.50;;;17.10;61.20;;;16.93;44.94;94014.25;4776122;29;20277;-74
2022/11/16 00:04:11;;;;;;;0.60;0.60;;;17.10;61.20;;;16.92;44.81;94016.13;4790903;29;20235;-74
2022/11/16 00:06:39;;;;;;;0.50;0.50;;;17.10;61.20;;;16.93;44.81;94009.78;4790952;29;20200;-74
2022/11/16 00:09:22;;;;;;;0.40;0.40;;;17.10;61.20;;;16.90;44.84;94001.50;4790638;29;20200;-74
2022/11/16 00:11:52;;;;;;;0.43;0.43;;;17.10;61.20;;;16.93;44.96;93998.38;4807597;29;20196;-74
2022/11/16 00:14:21;;;;;;;0.40;0.40;;;17.10;61.20;;;16.92;45.14;93997.59;4775912;29;20208;-74
2022/11/16 00:16:48;;;;;;;0.40;0.40;;;17.10;61.20;;;16.88;45.15;93979.78;4790928;29;20606;-74
2022/11/16 00:19:16;;;;;;;0.45;0.45;;;17.10;61.20;;;16.93;44.94;93990.44;4790529;29;20196;-74
2022/11/16 00:21:43;;;;;;;0.60;0.60;;;17.10;61.20;;;16.92;44.84;93991.50;4790947;29;20212;-74
2022/11/16 00:24:15;;;;;;;0.60;0.60;;;17.10;61.20;;;16.91;44.83;93984.56;4806345;29;20204;-74
2022/11/16 00:26:43;;;;;;;0.50;0.50;;;17.10;61.20;;;16.84;45.19;93976.03;4790697;29;20200;-74
2022/11/16 00:29:18;;;;;;;0.50;0.50;;;17.10;61.20;;;16.91;45.04;93982.72;4790655;29;20212;-74
2022/11/16 00:31:46;;;;;;;0.40;0.40;;;17.10;61.20;;;16.87;45.24;93973.69;4791384;29;20224;-74
2022/11/16 00:34:13;;;;;;;0.50;0.50;;;17.10;61.30;;;16.88;45.26;93983.22;4808551;29;20629;-74
2022/11/16 00:36:41;;;;;;;0.47;0.47;;;17.10;61.20;;;16.90;44.96;93985.63;4793567;29;20250;-74
2022/11/16 00:41:47;;;;;;;0.50;0.50;;;17.10;61.20;;;16.90;44.97;93977.69;5092456;27;20548;-75
2022/11/16 00:44:14;;;;;;;0.60;0.60;;;17.10;61.20;;;16.93;45.04;93987.78;5088111;28;20194;-75
2022/11/16 00:46:42;;;;;;;0.50;0.50;;;17.10;61.20;;;16.89;45.26;93984.81;5088138;28;20199;-75
2022/11/16 00:49:09;;;;;;;0.40;0.40;;;17.10;61.20;;;16.90;44.96;93994.34;5087955;28;20400;-75
2022/11/16 00:51:37;;;;;;;0.40;0.40;;;17.10;61.20;;;16.91;45.10;93995.16;5087992;28;20256;-75
2022/11/16 00:54:06;;;;;;;0.60;0.60;;;17.10;61.20;;;16.89;45.09;93997.25;5071161;28;20700;-75
2022/11/16 00:56:35;;;;;;;0.50;0.50;;;17.10;61.20;;;16.91;45.44;93989.88;5087757;28;20183;-75
2022/11/16 00:59:04;;;;;;;0.50;0.50;;;17.10;61.20;;;16.91;44.93;93997.81;5070933;28;20289;-75
2022/11/16 01:01:31;;;;;;;0.40;0.40;;;17.00;61.10;;;16.89;45.06;93992.75;5104673;28;20223;-75
2022/11/16 01:03:59;;;;;;;0.40;0.40;;;17.00;61.10;;;16.87;44.88;93984.28;5087630;28;20229;-75
2022/11/16 01:06:26;;;;;;;0.43;0.43;;;17.00;61.10;;;16.89;44.88;93979.50;5087697;28;20199;-75
2022/11/16 01:08:53;;;;;;;0.50;0.50;;;17.00;61.10;;;16.88;45.04;93977.94;5071635;28;20191;-75
2022/11/16 01:14:10;;;;;;;0.50;0.50;;;17.00;61.10;;;16.87;44.98;93962.28;5071791;28;20266;-75
2022/11/16 01:16:37;;;;;;;0.45;0.45;;;17.10;61.20;;;16.85;44.91;93957.25;5087568;28;20206;-74
2022/11/16 01:19:04;;;;;;;0.47;0.47;;;17.00;61.10;;;16.88;45.22;93966.53;5088023;28;20532;-75
2022/11/16 01:21:32;;;;;;;0.40;0.40;;;17.00;61.10;;;16.87;45.30;93960.44;5087388;28;20222;-75
2022/11/16 01:24:00;;;;;;;0.50;0.50;;;17.00;61.10;;;16.87;44.87;93965.75;5087450;28;20198;-75
2022/11/16 01:26:27;;;;;;;0.40;0.40;;;17.00;61.10;;;16.86;44.78;93958.84;5053994;28;20234;-75
2022/11/16 01:28:57;;;;;;;0.40;0.40;;;17.00;61.10;;;16.87;45.21;93956.97;5070601;28;20293;-75
2022/11/16 01:31:26;;;;;;;0.40;0.40;;;17.00;61.10;;;16.85;44.92;93951.16;5070441;28;20201;-75
2022/11/16 01:33:54;;;;;;;0.50;0.50;;;17.00;61.10;;;16.87;45.34;93955.16;5070476;28;20203;-75
2022/11/16 01:36:25;;;;;;;0.40;0.40;;;17.00;61.10;;;16.82;45.10;93936.59;5070305;28;20532;-75
2022/11/16 01:38:55;;;;;;;0.40;0.40;;;17.00;61.10;;;16.86;45.28;93945.59;5054020;28;20699;-75
2022/11/16 01:41:26;;;;;;;0.50;0.50;;;17.00;61.10;;;16.84;45.25;93923.09;5069979;28;20238;-75
2022/11/16 01:44:31;;;;;;;0.40;0.40;;;17.00;62.00;;;16.84;45.39;93923.09;5086486;28;20205;-75
2022/11/16 01:47:13;;;;;;;0.40;0.40;;;17.00;61.10;;;16.82;44.91;93910.09;5103898;28;20534;-75
2022/11/16 01:49:51;;;;;;;0.50;0.50;;;17.00;61.10;;;16.82;44.97;93904.81;5087018;28;20233;-75
2022/11/16 01:52:26;;;;;;;0.40;0.40;;;17.00;61.10;;;16.78;45.13;93890.47;5094989;28;20227;-75
2022/11/16 01:54:54;;;;;;;0.43;0.43;;;17.00;61.10;;;16.83;44.98;93892.34;5073390;28;20219;-75
2022/11/16 01:57:37;;;;;;;0.40;0.40;;;17.00;61.10;;;16.81;45.21;93882.81;5040135;28;20194;-75
2022/11/16 02:00:10;;;;;;;0.43;0.43;;;17.00;61.10;;;16.80;45.16;93886.50;5090470;28;20216;-75
2022/11/16 02:02:46;;;;;;;0.50;0.50;;;17.00;61.10;;;16.81;45.00;93874.06;5073295;28;20199;-75
2022/11/16 02:06:01;;;;;;;0.50;0.50;;;17.00;61.10;;;16.80;45.20;93873.25;5075381;28;20281;-75
2022/11/16 02:12:07;;;;;;;0.50;0.50;;;17.00;61.10;;;16.77;45.00;93867.69;5056384;28;20628;-75
2022/11/16 02:15:12;;;;;;;0.40;0.40;;;17.00;61.10;;;16.71;45.53;93856.28;5073002;28;20199;-75
2022/11/16 02:18:21;;;;;;;0.40;0.40;;;16.90;61.00;;;16.74;45.07;93866.34;5056026;28;20665;-75
2022/11/16 02:21:20;;;;;;;0.50;0.50;;;16.90;61.00;;;16.74;45.30;93865.56;5072479;28;20553;-75
2022/11/16 02:24:21;;;;;;;0.60;0.60;;;16.90;61.00;;;16.72;45.05;93857.88;5055815;28;20249;-75
2022/11/16 02:27:10;;;;;;;0.60;0.60;;;16.90;61.00;;;16.72;44.98;93870.31;5055953;28;20260;-75
2022/11/16 02:29:42;;;;;;;0.50;0.50;;;16.90;61.10;;;16.64;45.20;93845.13;5089628;28;20532;-75
2022/11/16 02:32:14;;;;;;;0.40;0.40;;;16.90;61.00;;;16.72;45.38;93852.59;5056022;28;20280;-75
2022/11/16 02:34:54;;;;;;;0.55;0.55;;;16.90;61.00;;;16.72;45.35;93849.13;5056016;28;20202;-75
2022/11/16 02:37:24;;;;;;;0.60;0.60;;;16.90;61.00;;;16.73;45.22;93856.00;5072794;28;20196;-75
2022/11/16 02:39:57;;;;;;;0.47;0.47;;;16.90;61.00;;;16.69;45.78;93847.78;5055648;28;20235;-75
2022/11/16 02:42:40;;;;;;;0.43;0.43;;;16.90;61.00;;;16.74;45.24;93853.09;5056023;28;20202;-75
2022/11/16 02:45:19;;;;;;;0.40;0.40;;;16.90;61.00;;;16.74;45.19;93849.66;5072489;28;20234;-75
2022/11/16 02:47:49;;;;;;;0.40;0.40;;;16.90;61.00;;;16.74;44.82;93847.81;5089508;28;20599;-75
2022/11/16 02:50:20;;;;;;;0.60;0.60;;;16.90;61.00;;;16.73;45.03;93840.13;5055722;28;20200;-75
2022/11/16 02:52:47;;;;;;;0.43;0.43;;;16.90;61.00;;;16.74;44.96;93841.72;5055952;28;20195;-75
2022/11/16 02:55:14;;;;;;;0.60;0.60;;;16.90;61.00;;;16.76;45.23;93842.25;5072170;28;20223;-75
2022/11/16 02:57:49;;;;;;;0.50;0.50;;;16.90;61.00;;;16.75;45.55;93830.88;5056256;28;20286;-75
2022/11/16 03:00:24;;;;;;;0.40;0.40;;;16.90;61.00;;;16.74;45.23;93839.88;5055464;28;20269;-75
2022/11/16 03:03:12;;;;;;;0.50;0.50;;;16.90;61.90;;;16.75;45.06;93833.53;5071736;28;20516;-76
2022/11/16 03:06:02;;;;;;;0.45;0.45;;;16.90;61.00;;;16.73;45.09;93838.25;5072009;28;20204;-76
2022/11/16 03:08:36;;;;;;;0.40;0.40;;;16.90;61.00;;;16.72;45.05;93822.63;5055560;28;20184;-76
2022/11/16 03:14:02;;;;;;;0.50;0.50;;;16.90;61.00;;;16.75;45.25;93819.50;5042203;28;20207;-76
2022/11/16 03:16:36;;;;;;;0.40;0.40;;;16.90;61.00;;;16.74;45.43;93818.69;5038896;28;20700;-76
2022/11/16 03:19:10;;;;;;;0.30;0.30;;;16.90;61.00;;;16.74;45.44;93813.38;5055274;28;20603;-75
2022/11/16 03:22:05;;;;;;;0.45;0.45;;;16.90;61.90;;;16.68;45.06;93797.75;5039313;28;20223;-75
2022/11/16 03:24:35;;;;;;;0.50;0.50;;;16.90;61.00;;;16.72;45.24;93802.28;5072294;28;20278;-75
2022/11/16 03:27:20;;;;;;;0.57;0.57;;;16.90;61.10;;;16.70;45.14;93803.56;5071758;28;20206;-75
2022/11/16 03:30:09;;;;;;;0.60;0.60;;;16.90;61.00;;;16.73;45.35;93808.34;5088494;28;20611;-75
2022/11/16 03:32:50;;;;;;;0.40;0.40;;;16.90;61.00;;;16.72;45.29;93802.28;5070873;28;20263;-75
2022/11/16 03:35:26;;;;;;;0.50;0.50;;;16.90;61.00;;;16.73;45.45;93808.34;5088511;28;20238;-75
2022/11/16 03:37:57;;;;;;;0.45;0.45;;;16.90;61.00;;;16.69;45.30;93796.69;5038239;28;20199;-75
2022/11/16 03:40:29;;;;;;;0.50;0.50;;;16.90;61.00;;;16.73;45.29;93800.41;5071449;28;20239;-75
2022/11/16 03:43:00;;;;;;;0.50;0.50;;;16.90;61.00;;;16.71;45.45;93790.09;5071332;28;20192;-76
2022/11/16 03:45:29;;;;;;;0.50;0.50;;;16.90;61.00;;;16.73;45.15;93787.16;5054620;28;20209;-75
2022/11/16 03:47:56;;;;;;;0.60;0.60;;;16.90;61.00;;;16.73;45.16;93782.66;5054448;28;20195;-75
2022/11/16 03:50:24;;;;;;;0.47;0.47;;;16.90;61.00;;;16.74;45.12;93776.31;5054565;28;20630;-75
2022/11/16 03:52:52;;;;;;;0.50;0.50;;;16.90;61.00;;;16.76;45.36;93784.00;5071142;28;20210;-75
2022/11/16 03:55:19;;;;;;;0.50;0.50;;;16.90;61.00;;;16.76;45.37;93778.69;5071069;28;20200;-75
2022/11/16 03:57:46;;;;;;;0.50;0.50;;;16.90;61.00;;;16.72;45.04;93774.97;5087829;28;20210;-75
2022/11/16 04:00:14;;;;;;;0.50;0.50;;;16.90;61.00;;;16.74;45.44;93778.19;5071066;28;20559;-76
2022/11/16 04:02:42;;;;;;;0.60;0.60;;;16.90;61.00;;;16.73;44.97;93773.94;5071321;28;20195;-75
2022/11/16 04:25:25;;;;;;;0.47;0.47;;;16.90;61.00;;;16.65;45.46;93768.06;5070701;28;20198;-75
2022/11/16 04:28:12;;;;;;;0.43;0.43;;;16.90;61.00;;;16.68;45.38;93769.41;5054043;28;20172;-75
2022/11/16 04:39:10;;;;;;;0.40;0.40;;;16.90;61.00;;;16.65;45.19;93754.84;5070610;28;20253;-75
2022/11/16 04:47:05;;;;;;;0.50;0.50;;;16.80;61.00;;;16.67;45.65;93745.84;5070425;28;20196;-75
2022/11/16 04:47:15;;;;;;;0.50;0.50;;;16.80;61.00;;;16.62;45.37;93742.13;5067834;28;20222;-75
2022/11/16 04:49:42;;;;;;;0.60;0.60;;;16.80;61.00;;;16.67;45.14;93749.28;5070277;28;20290;-75
2022/11/16 04:52:10;;;;;;;0.40;0.40;;;16.80;61.00;;;16.67;45.33;93746.63;5053702;28;20634;-75
2022/11/16 04:54:38;;;;;;;0.50;0.50;;;16.80;61.00;;;16.68;45.39;93748.22;5053536;28;20542;-75
2022/11/16 04:57:06;;;;;;;0.40;0.40;;;16.90;61.10;;;16.68;45.07;93744.78;5053688;28;20199;-75
2022/11/16 04:59:34;;;;;;;0.50;0.50;;;16.90;61.00;;;16.69;44.95;93741.88;5087231;28;20202;-75
2022/11/16 05:02:08;;;;;;;0.50;0.50;;;16.80;61.90;;;16.70;45.13;93740.00;5053560;28;20219;-75
2022/11/16 05:04:44;;;;;;;0.40;0.40;;;16.80;61.00;;;16.66;45.36;93726.50;5053517;28;20195;-75
2022/11/16 05:07:14;;;;;;;0.40;0.40;;;16.90;61.00;;;16.71;45.55;93736.31;5070256;28;20652;-74
2022/11/16 05:09:46;;;;;;;0.50;0.50;;;16.90;61.00;;;16.70;45.23;93745.31;5054066;28;20191;-75
2022/11/16 05:12:23;;;;;;;0.60;0.60;;;16.90;61.00;;;16.71;45.45;93739.78;5087197;28;20195;-75
2022/11/16 05:14:55;;;;;;;0.40;0.40;;;16.90;61.00;;;16.69;45.00;93744.53;5054078;28;20557;-75
2022/11/16 05:17:26;;;;;;;0.50;0.50;;;16.90;61.00;;;16.70;45.06;93743.47;5053771;28;20223;-75
2022/11/16 05:22:55;;;;;;;0.40;0.40;;;16.90;61.00;;;16.67;45.30;93736.03;5040331;28;20215;-75
2022/11/16 05:25:25;;;;;;;0.45;0.45;;;16.90;61.00;;;16.69;45.47;93743.75;5053311;28;20194;-75
2022/11/16 05:27:53;;;;;;;0.50;0.50;;;16.90;61.00;;;16.62;45.36;93722.78;5089536;28;20577;-76
2022/11/16 05:30:20;;;;;;;0.50;0.50;;;16.90;61.00;;;16.71;45.08;93736.31;5057413;28;20533;-75
2022/11/16 05:32:48;;;;;;;0.40;0.40;;;16.90;61.00;;;16.68;45.14;93724.41;5073777;28;20298;-75
2022/11/16 05:35:17;;;;;;;0.47;0.47;;;16.90;61.00;;;16.71;44.96;93721.25;5057080;28;20199;-75
2022/11/16 05:37:46;;;;;;;0.50;0.50;;;16.90;61.00;;;16.69;45.13;93718.06;5090619;28;20237;-75
2022/11/16 05:40:13;;;;;;;0.55;0.55;;;16.90;61.00;;;16.70;44.97;93719.66;5090350;28;20235;-75
2022/11/16 05:42:49;;;;;;;0.40;0.40;;;16.90;61.10;;;16.70;45.01;93717.00;5056908;28;20230;-75
2022/11/16 05:45:19;;;;;;;0.60;0.60;;;16.90;61.00;;;16.69;45.48;93702.16;5057058;28;20533;-75
2022/11/16 05:47:48;;;;;;;0.45;0.45;;;16.90;61.00;;;16.68;45.39;93692.63;5056881;28;20653;-75
2022/11/16 05:50:16;;;;;;;0.50;0.50;;;16.90;61.10;;;16.71;45.06;93701.91;5073485;28;20199;-75
2022/11/16 05:52:51;;;;;;;0.40;0.40;;;16.90;61.00;;;16.66;45.44;93702.66;5075158;28;20202;-75
2022/11/16 05:55:18;;;;;;;0.60;0.60;;;16.90;61.00;;;16.70;45.42;93700.31;5073784;28;20654;-75
2022/11/16 05:57:54;;;;;;;0.50;0.50;;;16.90;61.00;;;16.70;44.98;93705.59;5056831;28;20201;-82
2022/11/16 06:00:22;;;;;;;0.40;0.40;;;16.90;61.00;;;16.66;45.14;93697.38;5073482;28;20241;-76
2022/11/16 06:02:51;;;;;;;0.50;0.50;;;16.90;61.00;;;16.71;45.30;93709.84;5056707;28;20618;-76
2022/11/16 06:05:23;;;;;;;0.40;0.40;;;16.90;61.00;;;16.68;45.36;93702.44;5040524;28;20279;-75
2022/11/16 06:07:50;;;;;;;0.40;0.40;;;16.80;60.90;;;16.72;45.24;93703.50;5056491;28;20549;-75
2022/11/16 06:10:17;;;;;;;0.40;0.40;;;16.90;61.00;;;16.67;45.52;93698.97;5057481;28;20192;-76
2022/11/16 06:12:47;;;;;;;0.40;0.40;;;16.90;61.00;;;16.67;45.34;93695.53;5073153;28;20555;-75
2022/11/16 06:15:15;;;;;;;0.50;0.50;;;16.90;61.00;;;16.69;45.45;93704.81;5056185;28;20203;-75
2022/11/16 06:17:42;;;;;;;0.40;0.40;;;16.90;61.00;;;16.65;45.34;93693.16;5056319;28;20211;-75
2022/11/16 06:20:11;;;;;;;0.50;0.50;;;16.80;61.00;;;16.72;45.26;93709.59;5056292;28;20543;-75
2022/11/16 06:22:39;;;;;;;0.45;0.45;;;16.90;61.00;;;16.71;45.15;93709.84;5056162;28;20222;-75
2022/11/16 06:25:07;;;;;;;0.55;0.55;;;16.90;61.00;;;16.72;45.08;93706.97;5072740;28;20199;-75
2022/11/16 06:27:39;;;;;;;0.43;0.43;;;16.90;61.00;;;16.70;45.08;93703.75;5040296;28;20188;-75
2022/11/16 06:30:08;;;;;;;0.40;0.40;;;16.90;61.00;;;16.65;44.93;93696.59;5072760;28;20195;-75
2022/11/16 06:32:35;;;;;;;0.40;0.40;;;16.90;61.00;;;16.69;45.33;93698.75;5072855;28;20210;-75
2022/11/16 06:35:04;;;;;;;0.50;0.50;;;16.90;61.00;;;16.71;44.99;93701.91;5056013;28;20536;-75
2022/11/16 06:37:32;;;;;;;0.40;0.40;;;16.90;61.00;;;16.69;45.28;93694.22;5072526;28;20223;-75
2022/11/16 06:39:59;;;;;;;0.50;0.50;;;16.90;61.00;;;16.70;45.30;93701.13;5039115;28;20238;-75
2022/11/16 06:42:30;;;;;;;0.50;0.50;;;16.90;61.00;;;16.67;45.08;93692.91;5056798;28;20219;-75
2022/11/16 06:44:59;;;;;;;0.50;0.50;;;16.90;61.10;;;16.69;45.44;93701.38;5055622;28;20761;-75
2022/11/16 06:47:30;;;;;;;0.40;0.40;;;16.90;61.00;;;16.70;45.15;93710.91;5072625;28;20214;-75
2022/11/16 06:50:00;;;;;;;0.50;0.50;;;16.90;61.00;;;16.70;45.60;93718.84;5055700;28;20199;-75
2022/11/16 06:52:27;;;;;;;0.57;0.57;;;16.90;61.00;;;16.67;45.30;93720.16;5055680;28;20222;-75
2022/11/16 06:54:54;;;;;;;0.60;0.60;;;16.80;61.00;;;16.71;45.06;93734.47;5072118;28;20294;-75
2022/11/16 06:57:21;;;;;;;0.50;0.50;;;16.80;61.00;;;16.67;44.86;93724.66;5055603;28;20196;-75
2022/11/16 06:59:49;;;;;;;0.50;0.50;;;16.90;61.00;;;16.72;45.08;93737.91;5089095;28;20597;-75
2022/11/16 07:02:19;;;;;;;0.40;0.40;;;16.90;61.00;;;16.70;45.29;93732.88;5055720;28;20215;-75
2022/11/16 07:04:47;;;;;;;0.50;0.50;;;16.90;61.00;;;16.70;45.52;93735.53;5089354;28;20583;-75
2022/11/16 07:07:15;;;;;;;0.40;0.40;;;16.90;61.00;;;16.70;44.89;93735.53;5055519;28;20203;-75
2022/11/16 07:09:43;;;;;;;0.40;0.40;;;16.90;61.00;;;16.68;44.91;93731.56;5088852;28;20652;-75
2022/11/16 07:12:12;;;;;;;0.60;0.60;;;16.80;61.00;;;16.70;45.34;93743.47;5055282;28;20199;-75
2022/11/16 07:14:41;;;;;;;0.40;0.40;;;16.90;61.00;;;16.69;45.15;93752.47;5055221;28;20221;-75
2022/11/16 07:17:10;;;;;;;0.40;0.40;;;16.90;61.00;;;16.70;45.26;93751.41;5055342;28;20696;-75
2022/11/16 07:19:37;;;;;;;0.50;0.50;;;16.90;61.00;;;16.70;45.28;93746.13;5055473;28;20230;-75
2022/11/16 07:22:05;;;;;;;0.50;0.50;;;16.90;61.00;;;16.72;44.83;93751.16;5038603;28;20215;-75
2022/11/16 07:24:32;;;;;;;0.40;0.40;;;16.90;61.00;;;16.70;45.17;93740.81;5071698;28;20261;-75
2022/11/16 07:27:00;;;;;;;0.50;0.50;;;16.90;61.00;;;16.70;45.36;93734.72;5071663;28;20282;-75
2022/11/16 07:29:31;;;;;;;0.50;0.50;;;16.90;61.40;;;16.69;45.37;93733.16;5071021;28;20218;-75
2022/11/16 07:32:29;;;;;;;0.50;0.50;;;16.80;61.00;;;16.69;44.96;93744.53;5063476;28;20207;-76
2022/11/16 07:34:57;;;;;;;0.50;0.50;;;16.90;61.00;;;16.64;45.11;93736.56;5071486;28;20200;-75
2022/11/16 07:37:26;;;;;;;0.50;0.50;;;16.90;61.00;;;16.68;45.21;93742.16;5071294;28;20199;-75
2022/11/16 07:39:54;;;;;;;0.50;0.50;;;16.80;60.90;;;16.68;45.16;93729.69;5088286;28;20239;-75
2022/11/16 07:42:22;;;;;;;0.40;0.40;;;16.90;61.00;;;16.69;45.29;93723.34;5071527;28;20227;-75
2022/11/16 07:45:00;;;;;;;0.50;0.50;;;16.80;61.00;;;16.68;44.95;93727.03;5071358;28;20202;-75
2022/11/16 07:47:27;;;;;;;0.60;0.60;;;16.90;61.00;;;16.63;45.12;93722.53;5054386;28;20612;-75
2022/11/16 07:49:54;;;;;;;0.50;0.50;;;16.80;61.00;;;16.68;45.19;93719.09;5054268;28;20206;-75
2022/11/16 07:52:25;;;;;;;0.40;0.40;;;16.80;61.00;;;16.68;45.30;93732.34;5054542;28;20187;-75
2022/11/16 07:54:57;;;;;;;0.40;0.40;;;16.80;61.00;;;16.69;45.06;93738.44;5070590;28;20180;-76
2022/11/16 07:57:26;;;;;;;0.43;0.43;;;16.80;61.00;;;16.68;45.21;93739.50;5054348;28;20741;-75
2022/11/16 07:59:55;;;;;;;0.40;0.40;;;16.90;61.00;;;16.69;45.09;93739.22;5071353;28;20207;-76
2022/11/16 08:02:22;;;;;;;0.70;0.70;;;16.80;61.00;;;16.69;44.97;93741.09;5037777;28;20219;-75
2022/11/16 08:04:50;;;;;;;0.40;0.40;;;16.80;61.00;;;16.63;45.44;93741.06;5088860;28;20222;-75
2022/11/16 08:07:22;;;;;;;0.60;0.60;;;16.90;61.00;;;16.62;44.94;93736.03;5071154;28;20192;-75
2022/11/16 08:09:54;;;;;;;0.50;0.50;;;16.90;61.00;;;16.68;45.34;93745.56;5071558;28;20215;-75
2022/11/16 08:12:22;;;;;;;0.40;0.40;;;16.90;61.00;;;16.68;45.50;93750.09;5037873;28;20574;-75
2022/11/16 08:14:49;;;;;;;0.40;0.40;;;16.90;61.00;;;16.68;45.21;93745.56;5070873;28;20199;-75
2022/11/16 08:17:16;;;;;;;0.50;0.50;;;16.80;61.00;;;16.68;45.34;93750.88;5053986;28;20203;-75
2022/11/16 08:19:43;;;;;;;0.50;0.50;;;16.80;61.00;;;16.69;45.20;93744.53;5070822;28;20265;-75
2022/11/16 08:22:14;;;;;;;0.40;0.40;;;16.90;61.00;;;16.69;45.16;93751.69;5054111;28;20662;-75
2022/11/16 08:24:42;;;;;;;0.40;0.40;;;16.80;60.90;;;16.68;45.34;93756.16;5087460;28;20211;-75
2022/11/16 08:27:09;;;;;;;0.60;0.60;;;16.80;60.90;;;16.65;45.31;93754.06;5037361;28;20203;-75
2022/11/16 08:29:37;;;;;;;0.47;0.47;;;16.80;61.00;;;16.69;45.29;93759.63;5070693;28;20206;-75
2022/11/16 08:32:07;;;;;;;0.40;0.40;;;16.80;61.00;;;16.63;45.15;93753.50;5055584;28;20207;-75
2022/11/16 08:34:35;;;;;;;0.60;0.60;;;16.80;61.00;;;16.69;45.27;93763.06;5053892;28;20622;-75
2022/11/16 08:37:03;;;;;;;0.40;0.40;;;16.90;61.00;;;16.68;45.36;93755.38;5053669;28;20238;-75
2022/11/16 08:39:37;;;;;;;0.50;0.50;;;16.90;61.00;;;16.68;45.01;93758.81;5053727;28;20201;-75
2022/11/16 08:42:04;;;;;;;0.50;0.50;;;16.80;61.00;;;16.69;45.45;93760.41;5037323;28;20297;-75
2022/11/16 08:44:31;;;;;;;0.50;0.50;;;16.90;61.00;;;16.70;45.50;93761.19;5037487;28;20227;-75
2022/11/16 08:47:03;;;;;;;0.60;0.60;;;16.80;61.00;;;16.69;45.16;93751.69;5037794;28;20231;-75
2022/11/16 08:49:40;;;;;;;0.50;0.50;;;16.90;61.00;;;16.68;44.95;93756.16;5023950;28;20203;-74
2022/11/16 08:52:17;;;;;;;0.55;0.55;;;16.80;61.00;;;16.67;45.23;93751.94;5038389;28;20260;-75
2022/11/16 08:54:45;;;;;;;0.52;0.52;;;16.90;61.00;;;16.67;45.48;93753.78;5037546;28;20286;-75
2022/11/16 08:57:12;;;;;;;0.43;0.43;;;16.90;61.00;;;16.68;44.89;93758.03;5037107;28;20253;-75
2022/11/16 08:59:41;;;;;;;0.40;0.40;;;16.90;61.00;;;16.70;45.40;93755.91;5053889;28;20202;-75
2022/11/16 09:02:12;;;;;;;0.50;0.50;;;16.90;61.00;;;16.67;45.28;93762.50;5055836;28;20219;-75
2022/11/16 09:04:39;;;;;;;0.40;0.40;;;16.80;61.00;;;16.69;45.22;93765.72;5057823;28;20192;-75
2022/11/16 09:07:06;;;;;;;0.52;0.52;;;16.80;60.90;;;16.68;45.49;93761.47;5058425;28;20184;-74
2022/11/16 09:09:35;;;;;;;0.60;0.60;;;16.80;61.00;;;16.69;44.96;93764.94;5041443;28;20222;-75
2022/11/16 09:12:02;;;;;;;0.50;0.50;;;16.90;61.00;;;16.69;45.28;93767.56;5041360;28;20214;-75
2022/11/16 09:14:29;;;;;;;0.50;0.50;;;16.90;61.00;;;16.70;44.82;93771.78;5074148;28;20206;-75
2022/11/16 09:16:56;;;;;;;0.50;0.50;;;16.90;61.10;;;16.69;45.28;93759.63;5041000;28;20195;-75
2022/11/16 09:19:23;;;;;;;0.40;0.40;;;16.90;61.00;;;16.69;45.04;93768.34;5057577;28;20204;-75
2022/11/16 09:21:51;;;;;;;0.40;0.40;;;16.80;61.00;;;16.68;45.12;93768.63;5057346;28;20255;-75
2022/11/16 09:24:18;;;;;;;0.50;0.50;;;16.90;61.00;;;16.70;45.46;93769.13;5057353;28;20191;-76
2022/11/16 09:26:45;;;;;;;0.50;0.50;;;16.80;61.00;;;16.69;45.41;93771.00;5057253;28;20192;-76
2022/11/16 09:29:14;;;;;;;0.43;0.43;;;16.90;61.00;;;16.70;44.83;93774.44;5040830;28;20643;-76
2022/11/16 09:31:42;;;;;;;0.50;0.50;;;16.90;61.00;;;16.69;45.20;93778.94;5040951;28;20657;-76
2022/11/16 09:34:10;;;;;;;0.40;0.40;;;16.90;61.10;;;16.65;45.23;93776.03;5057428;28;20187;-76
2022/11/16 09:36:37;;;;;;;0.50;0.50;;;16.90;61.00;;;16.70;44.78;93788.50;5057192;28;20195;-75
2022/11/16 09:39:05;;;;;;;0.50;0.50;;;16.80;61.00;;;16.66;45.42;93782.09;5057150;28;20187;-76
2022/11/16 09:42:24;;;;;;;0.50;0.50;;;16.90;61.00;;;16.68;45.10;93789.81;5042916;28;20235;-75
2022/11/16 09:45:13;;;;;;;0.50;0.50;;;16.90;61.00;;;16.64;45.12;93781.56;5040459;28;20202;-75
2022/11/16 09:47:58;;;;;;;0.40;0.40;;;16.80;61.00;;;16.65;45.47;93786.59;5056956;28;20202;-75
2022/11/16 09:50:40;;;;;;;0.47;0.47;;;16.80;61.00;;;16.67;45.46;93782.91;5040662;28;20199;-75
2022/11/16 09:53:22;;;;;;;0.50;0.50;;;16.90;61.00;;;16.61;45.15;93774.13;5057087;28;20184;-75
2022/11/16 09:55:53;;;;;;;0.40;0.40;;;16.80;61.00;;;16.66;45.48;93782.09;5057143;28;20186;-75
2022/11/16 09:58:38;;;;;;;0.60;0.60;;;16.80;61.00;;;16.65;45.03;93776.03;5040341;28;20187;-75
2022/11/16 10:01:21;;;;;;;0.40;0.40;;;16.80;61.00;;;16.60;45.04;93765.41;5057037;28;20188;-75
2022/11/16 10:03:54;;;;;;;0.50;0.50;;;16.80;61.00;;;16.65;44.99;93775.22;5056576;28;20221;-75
2022/11/16 10:06:36;;;;;;;0.50;0.50;;;16.80;61.00;;;16.63;45.16;93770.16;5039933;28;20194;-75
2022/11/16 10:09:04;;;;;;;0.43;0.43;;;16.80;61.00;;;16.64;45.53;93760.41;5056687;28;20195;-76
2022/11/16 10:11:59;;;;;;;0.40;0.40;;;16.80;61.00;;;16.64;45.35;93763.84;5023779;28;20529;-75
2022/11/16 10:14:44;;;;;;;0.50;0.50;;;16.80;61.00;;;16.63;45.11;93756.16;5057175;28;20253;-75
2022/11/16 10:18:05;;;;;;;0.40;0.40;;;16.80;61.00;;;16.58;45.06;93746.34;5056399;28;20172;-75
2022/11/16 10:21:08;;;;;;;0.40;0.40;;;16.80;61.00;;;16.58;44.95;93743.69;5039969;28;20196;-75
2022/11/16 10:24:09;;;;;;;0.50;0.50;;;16.80;61.00;;;16.54;45.12;93737.31;5056235;28;20223;-75
2022/11/16 10:27:07;;;;;;;0.40;0.40;;;16.80;61.00;;;16.57;45.63;93742.09;5056994;28;20184;-75
2022/11/16 10:30:07;;;;;;;0.50;0.50;;;16.80;61.00;;;16.55;45.46;93730.97;5056171;28;20218;-75
2022/11/16 10:32:40;;;;;;;0.40;0.40;;;16.80;60.90;;;16.58;45.48;93734.97;5039619;28;20204;-75
2022/11/16 10:35:10;;;;;;;0.40;0.40;;;16.80;61.00;;;16.58;45.71;93725.16;5056984;28;20532;-75
2022/11/16 10:37:58;;;;;;;0.50;0.50;;;16.80;61.00;;;16.56;45.21;93724.59;5056316;28;20184;-75
2022/11/16 10:40:32;;;;;;;0.50;0.50;;;16.70;60.90;;;16.58;45.43;93719.06;5056030;28;20597;-75
2022/11/16 10:43:15;;;;;;;0.40;0.40;;;16.80;61.00;;;16.61;45.29;93721.19;5055922;28;20562;-75
2022/11/16 10:45:56;;;;;;;0.40;0.40;;;16.80;61.00;;;16.61;45.26;93718.53;5056000;28;20183;-75
2022/11/16 10:48:40;;;;;;;0.50;0.50;;;16.80;61.00;;;16.62;45.52;93726.25;5039345;28;20607;-75
2022/11/16 10:51:09;;;;;;;0.50;0.50;;;16.80;61.00;;;16.59;45.15;93716.16;5039228;28;20209;-75
2022/11/16 10:53:43;;;;;;;0.50;0.50;;;16.80;61.00;;;16.60;45.62;93715.13;5055770;28;20661;-75
2022/11/16 10:56:19;;;;;;;0.50;0.50;;;16.70;60.90;;;16.62;45.44;93713.00;5055861;28;20256;-75
2022/11/16 10:58:58;;;;;;;0.40;0.40;;;16.80;61.00;;;16.62;45.61;93706.91;5055630;28;20191;-74
2022/11/16 11:01:30;;;;;;;0.47;0.47;;;16.80;61.00;;;16.62;45.23;93710.38;5055662;28;20179;-75
2022/11/16 11:04:15;;;;;;;0.50;0.50;;;16.80;61.00;;;16.61;45.19;93705.31;5056345;28;20203;-75
2022/11/16 11:06:44;;;;;;;0.40;0.40;;;16.80;61.00;;;16.64;45.23;93699.50;5056288;28;20503;-75
2022/11/16 11:09:35;;;;;;;0.40;0.40;;;16.80;61.00;;;16.63;45.46;93708.50;5055461;28;20566;-74
2022/11/16 11:15:11;;;;;;;0.60;0.60;;;16.80;61.00;;;16.61;45.60;93692.88;5055586;28;20230;-75
2022/11/16 11:17:42;;;;;;;0.50;0.50;;;16.80;61.00;;;16.62;45.49;93686.53;5038611;28;20294;-75
2022/11/16 11:20:15;;;;;;;0.50;0.50;;;16.80;61.00;;;16.63;45.14;93688.09;5055198;28;20199;-75
2022/11/16 11:22:56;;;;;;;0.57;0.57;;;16.80;61.00;;;16.63;45.58;93689.97;5055213;28;20203;-76
2022/11/16 11:25:49;;;;;;;0.50;0.50;;;16.80;61.00;;;16.60;45.13;93683.34;5054368;28;20179;-75
2022/11/16 11:28:28;;;;;;;0.50;0.50;;;16.80;61.00;;;16.63;45.20;93682.81;5038454;28;20174;-75
2022/11/16 11:31:25;;;;;;;0.47;0.47;;;16.80;61.00;;;16.59;45.11;93687.03;5055055;28;20188;-75
2022/11/16 11:34:27;;;;;;;0.40;0.40;;;16.80;60.90;;;16.60;45.50;93690.47;5038709;28;20196;-75
2022/11/16 11:37:01;;;;;;;0.40;0.40;;;16.80;61.00;;;16.60;45.43;93682.53;5054497;28;20214;-75